Time;durP1;ratioP1;P1;durP2;ratioP2;P2;SDS_P1;SDS_P2;PMS_P1;PMS_P2;Temp;Humidity;BMP_temperature;BMP_pressure;BME280_temperature;BME280_humidity;BME280_pressure;Samples;Min_cycle;Max_cycle;Signal;HPM_P1;HPM_P2
2022/06/26 00:02:25;;;;;;;6.37;5.80;;;;;;;14.94;100.00;96835.50;5006211;28;20236;-66
2022/06/26 00:04:54;;;;;;;6.83;6.43;;;;;;;14.99;100.00;96836.47;4980340;28;20235;-69
2022/06/26 00:07:22;;;;;;;6.40;5.90;;;;;;;14.97;100.00;96835.88;5010319;28;20228;-65
2022/06/26 00:09:52;;;;;;;6.67;6.27;;;;;;;14.88;100.00;96837.19;5006291;28;20292;-61
2022/06/26 00:12:20;;;;;;;6.60;6.20;;;;;;;14.80;100.00;96832.13;5012787;28;20267;-65
2022/06/26 00:14:48;;;;;;;6.07;5.77;;;;;;;14.85;100.00;96830.44;5005861;28;20347;-67
2022/06/26 00:17:17;;;;;;;6.23;5.83;;;;;;;14.87;100.00;96833.72;5009776;28;20296;-65
2022/06/26 00:19:45;;;;;;;6.40;5.97;;;;;;;14.82;100.00;96835.38;4968986;28;20311;-57
2022/06/26 00:22:13;;;;;;;6.53;6.00;;;;;;;14.71;100.00;96831.59;4964114;28;21111;-64
2022/06/26 00:24:42;;;;;;;6.60;6.17;;;;;;;14.96;100.00;96831.56;5009398;28;20213;-62
2022/06/26 00:27:11;;;;;;;6.47;6.07;;;;;;;15.02;100.00;96817.34;5005029;28;20224;-64
2022/06/26 00:29:40;;;;;;;6.63;6.23;;;;;;;14.70;100.00;96822.78;5009203;28;20595;-63
2022/06/26 00:32:08;;;;;;;6.23;5.93;;;;;;;14.71;100.00;96832.41;5005264;28;20723;-64
2022/06/26 00:34:36;;;;;;;6.80;6.27;;;;;;;14.66;100.00;96828.72;5009179;28;20207;-62
2022/06/26 00:37:05;;;;;;;6.73;6.23;;;;;;;14.64;100.00;96826.31;4969565;28;20248;-66
2022/06/26 00:39:33;;;;;;;7.03;6.47;;;;;;;14.53;100.00;96825.16;5006945;28;20226;-65
2022/06/26 00:42:02;;;;;;;6.80;6.40;;;;;;;14.52;100.00;96828.84;5003413;28;20621;-65
2022/06/26 00:44:31;;;;;;;6.67;6.27;;;;;;;14.81;100.00;96825.75;5009642;28;20667;-64
2022/06/26 00:46:59;;;;;;;6.27;5.97;;;;;;;14.69;100.00;96826.47;5006260;28;20281;-68
2022/06/26 00:49:28;;;;;;;6.27;5.87;;;;;;;14.59;100.00;96829.63;5008806;28;20259;-61
2022/06/26 00:51:56;;;;;;;6.30;5.83;;;;;;;14.56;100.00;96826.56;5005174;28;20300;-66
2022/06/26 00:54:26;;;;;;;6.17;5.87;;;;;;;14.54;100.00;96824.13;4969396;28;20569;-64
2022/06/26 00:56:56;;;;;;;6.50;6.07;;;;;;;14.53;100.00;96824.31;5006384;28;20225;-62
2022/06/26 00:59:25;;;;;;;6.67;6.27;;;;;;;14.47;100.00;96831.38;5004405;28;20869;-65
2022/06/26 01:01:55;;;;;;;6.70;6.30;;;;;;;14.49;100.00;96837.28;5008290;28;20247;-63
2022/06/26 01:04:23;;;;;;;6.63;6.33;;;;;;;14.66;100.00;96840.22;5009024;28;20422;-64
2022/06/26 01:06:52;;;;;;;6.53;6.13;;;;;;;14.70;100.00;96835.25;5007926;28;20518;-66
2022/06/26 01:09:20;;;;;;;6.20;5.90;;;;;;;14.69;100.00;96831.78;4966938;28;20302;-63
2022/06/26 01:11:48;;;;;;;6.63;6.27;;;;;;;14.58;100.00;96840.47;5003865;28;20209;-61
2022/06/26 01:14:16;;;;;;;5.83;5.43;;;;;;;14.43;100.00;96846.16;5005000;28;20349;-65
2022/06/26 01:16:45;;;;;;;6.50;6.20;;;;;;;14.44;100.00;96847.78;5005353;28;20368;-64
2022/06/26 01:19:17;;;;;;;7.67;6.97;;;;;;;14.33;100.00;96847.44;5005197;28;20262;-65
2022/06/26 01:21:45;;;;;;;6.97;6.43;;;;;;;14.41;100.00;96842.91;5004860;28;20254;-67
2022/06/26 01:24:15;;;;;;;7.13;6.77;;;;;;;14.33;100.00;96844.78;4959882;28;20342;-61
2022/06/26 01:26:43;;;;;;;6.50;6.20;;;;;;;14.37;100.00;96847.00;5002219;28;20255;-65
2022/06/26 01:29:11;;;;;;;6.50;5.90;;;;;;;14.31;100.00;96849.50;5003914;28;20591;-67
2022/06/26 01:31:40;;;;;;;6.13;5.83;;;;;;;14.33;100.00;96849.31;5007189;28;20200;-62
2022/06/26 01:34:09;;;;;;;6.40;6.07;;;;;;;14.19;100.00;96845.91;5004133;28;20208;-67
2022/06/26 01:36:37;;;;;;;6.63;6.23;;;;;;;14.21;100.00;96845.72;5006781;28;20232;-66
2022/06/26 01:39:06;;;;;;;6.70;6.30;;;;;;;14.19;100.00;96848.56;4948588;28;20754;-63
2022/06/26 01:41:36;;;;;;;6.40;5.80;;;;;;;14.15;100.00;96845.50;5004621;28;20293;-62
2022/06/26 01:44:07;;;;;;;6.53;6.03;;;;;;;14.15;100.00;96855.38;5005015;28;20810;-61
2022/06/26 01:46:35;;;;;;;6.37;5.97;;;;;;;14.13;100.00;96852.91;4988732;28;20770;-60
2022/06/26 01:49:04;;;;;;;6.87;6.37;;;;;;;14.09;100.00;96857.03;5000500;28;20215;-63
2022/06/26 01:51:32;;;;;;;6.43;6.03;;;;;;;14.22;100.00;96866.00;5008315;28;20413;-66
2022/06/26 01:54:00;;;;;;;6.90;6.50;;;;;;;14.05;100.00;96866.50;4937529;28;20775;-64
2022/06/26 01:56:29;;;;;;;5.87;5.57;;;;;;;14.04;100.00;96865.69;5004210;28;20290;-65
2022/06/26 01:58:58;;;;;;;7.70;7.20;;;;;;;13.99;100.00;96867.34;5004793;28;20411;-64
2022/06/26 02:01:27;;;;;;;7.00;6.60;;;;;;;14.00;100.00;96861.00;4980843;28;20703;-65
2022/06/26 02:03:55;;;;;;;7.17;6.67;;;;;;;13.89;100.00;96862.47;5004731;28;20251;-63
2022/06/26 02:06:24;;;;;;;6.03;5.70;;;;;;;13.90;100.00;96861.44;5009209;28;20282;-62
2022/06/26 02:08:52;;;;;;;6.00;5.70;;;;;;;13.83;100.00;96863.34;4993262;28;20212;-67
2022/06/26 02:14:09;;;;;;;7.60;7.07;;;;;;;13.74;100.00;96874.22;5004943;28;20301;-64
2022/06/26 02:16:37;;;;;;;6.77;6.37;;;;;;;13.77;100.00;96875.63;4980847;28;20237;-66
2022/06/26 02:19:05;;;;;;;6.40;5.90;;;;;;;13.85;100.00;96888.72;5005235;28;20302;-59
2022/06/26 02:21:38;;;;;;;6.87;6.37;;;;;;;13.80;100.00;96891.19;5008257;28;20275;-65
2022/06/26 02:24:07;;;;;;;7.03;6.47;;;;;;;13.62;100.00;96894.53;4955667;28;20811;-65
2022/06/26 02:26:35;;;;;;;6.50;6.07;;;;;;;13.60;100.00;96902.75;5003722;28;20274;-66
2022/06/26 02:29:03;;;;;;;6.90;6.50;;;;;;;13.59;100.00;96905.59;5009439;28;20212;-65
2022/06/26 02:31:33;;;;;;;6.33;6.03;;;;;;;13.47;100.00;96910.78;4931400;28;20234;-63
2022/06/26 02:34:01;;;;;;;6.97;6.57;;;;;;;13.51;100.00;96904.00;5011652;28;20529;-65
2022/06/26 02:36:30;;;;;;;5.90;5.60;;;;;;;13.53;100.00;96904.63;4983580;28;21414;-63
2022/06/26 02:38:58;;;;;;;5.87;5.60;;;;;;;13.53;100.00;96901.13;5010105;28;20476;-67
2022/06/26 02:41:26;;;;;;;6.40;6.10;;;;;;;13.46;100.00;96901.97;5003820;28;20256;-65
2022/06/26 02:43:54;;;;;;;7.40;6.90;;;;;;;13.26;100.00;96917.94;5011560;28;20271;-67
2022/06/26 02:46:23;;;;;;;6.17;5.77;;;;;;;13.20;100.00;96918.78;4966336;28;21563;-62
2022/06/26 02:48:52;;;;;;;6.30;5.97;;;;;;;13.18;100.00;96926.97;5011421;28;20218;-62
2022/06/26 02:51:20;;;;;;;6.87;6.10;;;;;;;13.11;100.00;96920.03;4981382;28;20237;-63
2022/06/26 02:53:49;;;;;;;6.60;6.20;;;;;;;13.10;100.00;96926.38;5010056;28;20286;-65
2022/06/26 02:56:17;;;;;;;6.47;5.97;;;;;;;13.41;100.00;96924.88;5010499;28;20682;-64
2022/06/26 02:58:45;;;;;;;7.30;6.77;;;;;;;13.54;100.00;96924.06;5004869;28;20259;-64
2022/06/26 03:01:13;;;;;;;6.30;5.90;;;;;;;13.25;100.00;96926.13;4962606;28;20240;-62
2022/06/26 03:03:41;;;;;;;6.93;6.43;;;;;;;13.10;100.00;96929.84;5008738;28;20858;-63
2022/06/26 03:06:11;;;;;;;7.37;6.77;;;;;;;13.07;100.00;96932.91;5010118;28;20259;-61
2022/06/26 03:08:39;;;;;;;7.00;6.47;;;;;;;13.03;100.00;96935.16;4989621;28;20231;-64
2022/06/26 03:11:07;;;;;;;6.10;5.80;;;;;;;13.00;100.00;96940.88;5009259;28;20209;-64
2022/06/26 03:13:36;;;;;;;6.77;6.27;;;;;;;12.98;100.00;96932.31;5006070;28;20468;-63
2022/06/26 03:16:04;;;;;;;6.13;5.83;;;;;;;13.03;100.00;96937.81;4965831;28;20610;-65
2022/06/26 03:18:32;;;;;;;6.67;6.17;;;;;;;13.05;100.00;96934.97;4980392;28;20460;-66
2022/06/26 03:21:00;;;;;;;5.93;5.43;;;;;;;13.12;100.00;96940.28;5010893;28;20232;-61
2022/06/26 03:26:13;;;;;;;6.83;6.40;;;;;;;13.35;100.00;96941.66;5008011;28;20521;-63
2022/06/26 03:28:41;;;;;;;6.70;6.40;;;;;;;13.14;100.00;96935.56;5008765;28;20530;-64
2022/06/26 03:31:09;;;;;;;7.77;7.17;;;;;;;13.06;100.00;96927.78;4997776;28;21068;-65
2022/06/26 03:33:38;;;;;;;6.93;6.50;;;;;;;13.21;100.00;96933.72;4978769;28;20334;-63
2022/06/26 03:36:08;;;;;;;6.30;6.00;;;;;;;13.17;100.00;96940.47;5011018;28;20512;-63
2022/06/26 03:38:38;;;;;;;6.93;6.53;;;;;;;13.08;100.00;96942.53;4985968;28;20704;-65
2022/06/26 03:41:06;;;;;;;6.03;5.73;;;;;;;13.06;100.00;96936.59;5008115;28;20307;-63
2022/06/26 03:43:34;;;;;;;6.90;6.50;;;;;;;13.10;100.00;96947.66;5007327;28;20232;-62
2022/06/26 03:46:03;;;;;;;7.13;6.73;;;;;;;13.16;100.00;96954.81;5008448;28;20212;-62
2022/06/26 03:48:32;;;;;;;7.03;6.53;;;;;;;13.23;100.00;96952.13;4963631;28;20445;-64
2022/06/26 03:51:01;;;;;;;7.50;6.90;;;;;;;13.31;100.00;96952.72;5009226;28;20210;-65
2022/06/26 03:53:30;;;;;;;6.90;6.50;;;;;;;13.38;100.00;96955.41;4983422;28;20309;-65
2022/06/26 03:56:00;;;;;;;7.10;6.70;;;;;;;13.47;100.00;96961.34;5006910;28;20712;-61
2022/06/26 03:58:29;;;;;;;7.17;6.77;;;;;;;13.55;100.00;96960.28;5004170;28;20310;-65
2022/06/26 04:00:57;;;;;;;7.10;6.70;;;;;;;13.65;100.00;96965.19;5008878;28;20200;-65
2022/06/26 04:03:25;;;;;;;8.00;7.50;;;;;;;13.86;100.00;96964.09;4961960;28;20301;-59
2022/06/26 04:05:54;;;;;;;8.23;7.63;;;;;;;13.92;100.00;96959.78;5011455;28;20602;-65
2022/06/26 04:08:22;;;;;;;8.57;8.07;;;;;;;14.00;100.00;96964.88;4989830;28;21869;-65
2022/06/26 04:10:50;;;;;;;7.83;7.33;;;;;;;14.03;100.00;96965.28;5008261;28;20700;-61
2022/06/26 04:13:20;;;;;;;8.17;7.67;;;;;;;14.22;100.00;96965.38;5006334;28;20263;-63
2022/06/26 04:15:48;;;;;;;7.83;7.30;;;;;;;14.43;100.00;96961.56;5009125;28;20319;-59
2022/06/26 04:18:17;;;;;;;7.33;6.93;;;;;;;14.44;100.00;96957.88;4978047;28;20314;-62
2022/06/26 04:20:45;;;;;;;7.27;6.80;;;;;;;14.47;100.00;96960.13;4996012;28;20327;-65
2022/06/26 04:23:13;;;;;;;7.57;6.93;;;;;;;14.69;100.00;96956.28;5006902;28;20224;-64
2022/06/26 04:25:41;;;;;;;6.93;6.43;;;;;;;14.90;100.00;96960.47;4984378;28;20421;-61
2022/06/26 04:28:10;;;;;;;6.60;6.20;;;;;;;14.95;100.00;96965.97;5007910;28;20239;-61
2022/06/26 04:30:40;;;;;;;6.57;6.17;;;;;;;15.18;100.00;96967.22;5005009;28;20604;-64
2022/06/26 04:33:08;;;;;;;6.67;6.23;;;;;;;15.33;100.00;96959.69;5001175;28;20297;-62
2022/06/26 04:35:37;;;;;;;7.27;6.83;;;;;;;15.33;100.00;96962.34;4978722;28;20414;-64
2022/06/26 04:38:05;;;;;;;7.83;7.20;;;;;;;15.40;100.00;96962.28;4955973;28;20329;-62
2022/06/26 04:40:33;;;;;;;7.63;7.03;;;;;;;15.76;100.00;96963.38;5004330;28;20231;-61
2022/06/26 04:43:01;;;;;;;7.93;7.43;;;;;;;15.91;100.00;96955.00;4996073;28;20839;-63
2022/06/26 04:45:35;;;;;;;8.10;7.40;;;;;;;16.15;100.00;96952.47;5006003;28;20720;-62
2022/06/26 04:48:06;;;;;;;6.67;6.20;;;;;;;16.26;100.00;96958.09;4986472;28;20333;-63
2022/06/26 04:50:34;;;;;;;7.67;7.17;;;;;;;16.28;100.00;96947.97;5005503;28;20252;-61
2022/06/26 04:53:02;;;;;;;8.00;7.20;;;;;;;16.53;100.00;96947.03;4959316;28;21133;-62
2022/06/26 04:55:32;;;;;;;6.60;6.20;;;;;;;16.78;100.00;96938.81;5004433;28;20219;-62
2022/06/26 04:58:00;;;;;;;7.63;7.13;;;;;;;16.79;100.00;96937.78;5007079;28;20433;-60
2022/06/26 05:00:28;;;;;;;6.83;6.53;;;;;;;17.09;100.00;96942.28;5005310;28;20575;-61
2022/06/26 05:02:56;;;;;;;7.63;7.03;;;;;;;17.06;100.00;96945.41;4984103;28;20307;-65
2022/06/26 05:05:26;;;;;;;7.20;6.60;;;;;;;16.95;100.00;96947.00;5004947;28;20228;-64
2022/06/26 05:07:54;;;;;;;8.30;6.50;;;;;;;17.30;100.00;96946.25;4963176;28;21245;-64
2022/06/26 05:10:22;;;;;;;6.67;6.27;;;;;;;17.60;100.00;96949.81;5009562;28;20236;-63
2022/06/26 05:12:51;;;;;;;7.10;6.50;;;;;;;17.73;100.00;96948.75;5004967;28;20313;-65
2022/06/26 05:15:19;;;;;;;6.70;6.20;;;;;;;17.94;100.00;96956.16;5008401;28;20254;-64
2022/06/26 05:17:47;;;;;;;7.00;6.53;;;;;;;18.15;100.00;96958.44;4985794;28;20211;-62
2022/06/26 05:20:15;;;;;;;6.87;6.47;;;;;;;18.25;100.00;96957.84;5007860;28;20666;-63
2022/06/26 05:22:45;;;;;;;6.40;6.00;;;;;;;17.99;100.00;96963.50;4968316;28;20246;-63
2022/06/26 05:25:13;;;;;;;6.43;6.03;;;;;;;18.31;100.00;96968.44;5009136;28;20704;-65
2022/06/26 05:27:42;;;;;;;7.07;6.67;;;;;;;18.47;100.00;96963.34;5005460;28;20308;-62
2022/06/26 05:30:11;;;;;;;6.73;6.33;;;;;;;18.56;100.00;96966.47;5008410;28;20304;-65
2022/06/26 05:32:39;;;;;;;6.57;6.17;;;;;;;18.66;100.00;96964.78;4955212;28;20982;-62
2022/06/26 05:35:08;;;;;;;6.33;5.80;;;;;;;18.90;100.00;96967.31;5007391;28;20310;-63
2022/06/26 05:37:36;;;;;;;5.67;5.37;;;;;;;18.96;100.00;96960.16;4985147;28;20804;-63
2022/06/26 05:40:08;;;;;;;6.00;5.70;;;;;;;19.00;100.00;96966.72;4966248;28;20719;-64
2022/06/26 05:42:36;;;;;;;5.63;5.33;;;;;;;19.13;100.00;96965.56;5007266;28;20224;-65
2022/06/26 05:45:05;;;;;;;5.00;4.70;;;;;;;19.27;100.00;96966.06;5008370;28;20329;-65
2022/06/26 05:47:33;;;;;;;5.73;5.33;;;;;;;19.41;100.00;96961.16;4984439;28;20228;-65
2022/06/26 05:50:02;;;;;;;4.80;4.60;;;;;;;19.61;100.00;96968.69;5009112;28;20258;-66
2022/06/26 05:52:30;;;;;;;5.53;5.13;;;;;;;19.61;100.00;96976.75;4982829;28;20383;-61
2022/06/26 05:54:58;;;;;;;5.43;4.93;;;;;;;19.67;100.00;96970.41;4957389;28;20285;-66
2022/06/26 05:57:28;;;;;;;5.60;5.27;;;;;;;19.80;100.00;96974.59;5001480;28;20279;-64
2022/06/26 05:59:56;;;;;;;6.13;5.70;;;;;;;20.05;100.00;96962.56;5008739;28;20699;-65
2022/06/26 06:02:24;;;;;;;6.90;6.50;;;;;;;19.78;100.00;96962.47;4995124;28;20232;-64
2022/06/26 06:04:52;;;;;;;4.90;4.60;;;;;;;20.16;100.00;96965.38;5010148;28;20722;-65
2022/06/26 06:07:21;;;;;;;6.33;6.03;;;;;;;20.12;100.00;96969.66;5008623;28;20304;-62
2022/06/26 06:09:49;;;;;;;5.90;5.50;;;;;;;20.28;100.00;96951.81;4952598;28;22002;-65
2022/06/26 06:12:17;;;;;;;6.00;5.40;;;;;;;20.32;100.00;96958.31;5002182;28;20625;-60
2022/06/26 06:14:46;;;;;;;5.40;4.93;;;;;;;20.28;100.00;96949.91;5005125;28;20323;-63
2022/06/26 06:20:01;;;;;;;5.43;5.13;;;;;;;20.73;100.00;96952.50;5010936;28;20220;-64
2022/06/26 06:22:29;;;;;;;4.70;4.40;;;;;;;20.64;100.00;96954.84;5007525;28;20726;-62
2022/06/26 06:24:57;;;;;;;5.63;5.13;;;;;;;20.73;100.00;96957.88;4965623;28;20319;-65
2022/06/26 06:27:25;;;;;;;5.07;4.57;;;;;;;20.70;100.00;96964.59;4997511;28;20367;-62
2022/06/26 06:29:55;;;;;;;5.20;4.90;;;;;;;21.01;100.00;96962.19;5009385;28;20218;-63
2022/06/26 06:32:27;;;;;;;6.17;5.77;;;;;;;21.23;100.00;96969.38;4998976;28;20204;-64
2022/06/26 06:34:55;;;;;;;4.57;4.27;;;;;;;21.45;100.00;96968.44;5010194;28;20768;-65
2022/06/26 06:37:23;;;;;;;4.43;4.13;;;;;;;21.30;100.00;96969.97;5007709;28;20875;-63
2022/06/26 06:39:51;;;;;;;4.03;3.63;;;;;;;21.29;100.00;96976.41;4951220;28;20228;-64
2022/06/26 06:42:19;;;;;;;3.87;3.57;;;;;;;21.28;100.00;96979.38;5010795;28;20283;-61
2022/06/26 06:44:47;;;;;;;3.53;3.33;;;;;;;21.64;100.00;96977.75;4959088;28;20334;-63
2022/06/26 06:47:17;;;;;;;3.40;3.30;;;;;;;21.82;100.00;96984.59;5010872;28;20646;-65
2022/06/26 06:49:45;;;;;;;3.90;3.70;;;;;;;22.00;100.00;96977.13;4994892;28;20699;-63
2022/06/26 06:52:13;;;;;;;3.37;3.23;;;;;;;22.00;100.00;96974.44;5010427;28;20327;-64
2022/06/26 06:54:41;;;;;;;3.90;3.70;;;;;;;22.23;100.00;96970.47;4994625;28;20263;-63
2022/06/26 06:57:10;;;;;;;3.47;3.20;;;;;;;22.35;100.00;96972.13;5009102;28;20375;-65
2022/06/26 06:59:47;;;;;;;4.00;3.80;;;;;;;22.19;100.00;96972.09;4995783;28;20252;-63
2022/06/26 07:02:17;;;;;;;3.93;3.67;;;;;;;22.14;100.00;96976.66;5011172;28;20231;-66
2022/06/26 07:04:45;;;;;;;3.67;3.47;;;;;;;22.11;100.00;96975.28;5006881;28;20746;-64
2022/06/26 07:07:13;;;;;;;3.47;3.27;;;;;;;22.25;100.00;96981.00;5010384;28;20577;-64
2022/06/26 07:09:42;;;;;;;3.53;3.40;;;;;;;22.40;100.00;96978.38;5001501;28;20208;-65
2022/06/26 07:12:11;;;;;;;3.00;2.80;;;;;;;22.40;100.00;96985.63;5007203;28;20302;-64
2022/06/26 07:14:39;;;;;;;3.80;3.50;;;;;;;22.57;100.00;96981.94;5008192;28;20330;-64
2022/06/26 07:17:08;;;;;;;3.30;3.10;;;;;;;22.71;100.00;96977.63;4967907;28;21017;-64
2022/06/26 07:19:43;;;;;;;3.60;3.30;;;;;;;22.63;100.00;96967.38;5006442;28;20235;-63
2022/06/26 07:22:12;;;;;;;5.43;2.73;;;;;;;22.82;100.00;96973.88;5008852;28;20204;-64
2022/06/26 07:24:40;;;;;;;3.30;3.10;;;;;;;22.84;100.00;96979.81;5004039;28;20612;-63
2022/06/26 07:27:08;;;;;;;3.20;3.10;;;;;;;22.72;100.00;96976.56;4981082;28;20461;-64
2022/06/26 07:29:37;;;;;;;4.60;3.63;;;;;;;22.93;100.00;96982.00;5005132;28;20307;-63
2022/06/26 07:32:13;;;;;;;2.97;2.87;;;;;;;23.13;100.00;96976.59;4968082;28;20220;-63
2022/06/26 07:34:45;;;;;;;2.77;2.67;;;;;;;23.15;100.00;96975.50;5007421;28;20244;-63
2022/06/26 07:37:13;;;;;;;2.90;2.60;;;;;;;23.16;100.00;96971.72;5010826;28;20204;-60
2022/06/26 07:39:42;;;;;;;2.77;2.57;;;;;;;23.39;100.00;96971.19;5006820;28;20366;-67
2022/06/26 07:42:10;;;;;;;2.50;2.40;;;;;;;23.40;100.00;96975.53;4997550;28;20510;-67
2022/06/26 07:44:38;;;;;;;2.70;2.60;;;;;;;23.66;100.00;96980.06;5007066;28;20500;-66
2022/06/26 07:47:07;;;;;;;3.43;3.13;;;;;;;23.68;100.00;96983.31;5007347;28;20232;-66
2022/06/26 07:49:35;;;;;;;2.73;2.60;;;;;;;23.47;100.00;96979.84;4979513;28;20208;-68
2022/06/26 07:52:05;;;;;;;3.03;2.93;;;;;;;23.72;100.00;96983.56;5009970;28;20193;-71
2022/06/26 07:54:34;;;;;;;3.33;3.07;;;;;;;23.74;100.00;96979.50;5008231;28;20436;-66
2022/06/26 07:57:02;;;;;;;2.87;2.67;;;;;;;23.81;100.00;96980.00;4999080;28;20235;-67
2022/06/26 07:59:30;;;;;;;2.40;2.20;;;;;;;23.69;100.00;96988.44;5008080;28;20291;-68
2022/06/26 08:01:58;;;;;;;2.30;2.20;;;;;;;23.60;100.00;96984.66;5007993;28;20330;-67
2022/06/26 08:04:27;;;;;;;2.53;2.43;;;;;;;23.83;100.00;96985.16;4965183;28;20363;-66
2022/06/26 08:06:55;;;;;;;2.40;2.30;;;;;;;23.83;100.00;96983.25;5008728;28;20224;-67
2022/06/26 08:09:25;;;;;;;10.90;10.00;;;;;;;23.85;100.00;96983.00;5006995;28;20250;-67
2022/06/26 08:11:53;;;;;;;4.00;3.70;;;;;;;23.98;100.00;96973.47;4996514;28;20332;-67
2022/06/26 08:14:21;;;;;;;2.13;2.03;;;;;;;24.23;100.00;96980.72;5006852;28;20295;-68
2022/06/26 08:16:49;;;;;;;2.10;2.10;;;;;;;24.02;100.00;96981.88;5009497;28;20256;-67
2022/06/26 08:19:18;;;;;;;2.63;2.27;;;;;;;23.82;100.00;96981.63;4979970;28;20270;-68
2022/06/26 08:22:02;;;;;;;4.27;3.97;;;;;;;24.37;100.00;96975.50;5006608;28;20289;-69
2022/06/26 08:24:32;;;;;;;2.27;2.13;;;;;;;24.64;100.00;96979.69;5002363;28;20746;-69
2022/06/26 08:27:01;;;;;;;2.33;2.23;;;;;;;24.59;100.00;96985.13;4995908;28;20239;-68
2022/06/26 08:29:29;;;;;;;2.37;2.20;;;;;;;24.42;100.00;96975.47;5005649;28;20873;-67
2022/06/26 08:31:57;;;;;;;2.10;2.10;;;;;;;24.37;100.00;96977.38;5011070;28;20204;-70
2022/06/26 08:34:26;;;;;;;2.17;1.90;;;;;;;24.47;100.00;96974.66;4968927;28;21284;-66
2022/06/26 08:36:55;;;;;;;2.10;2.00;;;;;;;24.48;100.00;96975.44;5008209;28;20354;-68
2022/06/26 08:39:24;;;;;;;2.53;2.07;;;;;;;24.60;99.84;96977.81;5006305;28;20602;-67
2022/06/26 08:41:56;;;;;;;2.10;2.00;;;;;;;24.74;100.00;96969.88;5010579;28;20579;-70
2022/06/26 08:44:25;;;;;;;1.97;1.87;;;;;;;24.69;99.06;96974.25;4991291;28;20340;-66
2022/06/26 08:46:54;;;;;;;2.20;2.10;;;;;;;24.89;100.00;96964.38;5009500;28;20259;-69
2022/06/26 08:49:23;;;;;;;2.30;2.10;;;;;;;24.87;99.24;96968.47;5006001;28;20227;-67
2022/06/26 08:51:59;;;;;;;1.97;1.87;;;;;;;25.25;100.00;96971.41;4955434;28;20314;-69
2022/06/26 08:54:28;;;;;;;2.40;2.30;;;;;;;24.79;99.83;96967.16;5006781;28;20210;-68
2022/06/26 08:56:58;;;;;;;2.13;2.00;;;;;;;24.83;100.00;96966.31;4994648;28;20457;-68
2022/06/26 08:59:27;;;;;;;5.67;2.70;;;;;;;24.79;99.13;96961.75;5008107;28;20201;-70
2022/06/26 09:01:56;;;;;;;6.57;6.07;;;;;;;24.78;99.08;96960.13;5005374;28;20220;-68
2022/06/26 09:04:25;;;;;;;3.43;2.60;;;;;;;24.70;100.00;96958.78;5009918;28;20200;-68
2022/06/26 09:06:54;;;;;;;1.80;1.80;;;;;;;25.05;100.00;96967.75;4966857;28;20423;-68
2022/06/26 09:09:23;;;;;;;1.97;1.90;;;;;;;25.32;99.71;96963.75;5007406;28;21125;-68
2022/06/26 09:11:53;;;;;;;2.23;2.03;;;;;;;25.78;81.30;96965.22;5004036;28;20313;-70
2022/06/26 09:14:23;;;;;;;2.00;1.90;;;;;;;25.95;82.77;96963.94;4996877;28;20615;-69
2022/06/26 09:16:52;;;;;;;1.70;1.70;;;;;;;25.88;86.01;96958.84;5003390;28;20227;-67
2022/06/26 09:19:23;;;;;;;1.60;1.50;;;;;;;25.92;76.46;96959.09;5008010;28;20216;-67
2022/06/26 09:21:52;;;;;;;1.57;1.57;;;;;;;25.82;71.76;96962.72;4967351;28;20224;-71
2022/06/26 09:24:22;;;;;;;1.60;1.60;;;;;;;25.98;81.47;96957.94;5011685;28;20478;-69
2022/06/26 09:27:02;;;;;;;3.57;3.37;;;;;;;25.58;80.02;96953.47;5002702;28;20227;-67
2022/06/26 09:29:32;;;;;;;6.07;3.73;;;;;;;25.64;80.42;96948.81;4995250;28;20212;-67
2022/06/26 09:32:11;;;;;;;1.27;1.27;;;;;;;25.64;67.98;96954.25;5007223;28;20485;-68
2022/06/26 09:34:39;;;;;;;1.70;1.60;;;;;;;25.68;72.48;96946.31;5005395;28;20298;-68
2022/06/26 09:37:10;;;;;;;1.63;1.60;;;;;;;25.79;73.54;96958.69;5009291;28;20240;-69
2022/06/26 09:39:38;;;;;;;1.57;1.40;;;;;;;25.88;68.64;96945.28;4973005;28;20307;-67
2022/06/26 09:42:17;;;;;;;1.53;1.53;;;;;;;26.17;78.34;96938.19;5013919;28;20239;-67
2022/06/26 09:44:48;;;;;;;1.77;1.67;;;;;;;26.26;71.57;96937.22;4991792;28;20736;-66
2022/06/26 09:47:24;;;;;;;1.67;1.57;;;;;;;26.05;73.08;96947.53;5014228;28;20235;-69
2022/06/26 09:49:55;;;;;;;1.60;1.50;;;;;;;26.24;77.65;96944.06;5006048;28;20431;-66
2022/06/26 09:52:24;;;;;;;1.80;1.70;;;;;;;26.39;86.61;96943.84;5012074;28;20204;-69
2022/06/26 09:54:53;;;;;;;1.47;1.47;;;;;;;26.33;71.96;96938.78;4968595;28;20325;-66
2022/06/26 09:57:26;;;;;;;1.50;1.50;;;;;;;26.34;73.60;96934.97;5010876;28;20218;-68
2022/06/26 09:59:57;;;;;;;1.40;1.40;;;;;;;26.54;73.83;96934.69;4995830;28;20679;-67
2022/06/26 10:08:04;;;;;;;1.67;1.60;;;;;;;26.18;78.69;96931.66;4974524;28;20242;-65
2022/06/26 10:10:34;;;;;;;1.73;1.63;;;;;;;26.32;78.21;96932.56;4969531;28;20226;-67
2022/06/26 10:13:05;;;;;;;1.60;1.50;;;;;;;26.18;73.47;96932.47;5012526;28;20452;-67
2022/06/26 10:15:38;;;;;;;1.50;1.40;;;;;;;26.28;74.08;96924.16;4997454;28;20591;-66
2022/06/26 10:18:20;;;;;;;1.30;1.30;;;;;;;26.50;68.37;96930.94;5010586;28;20247;-69
2022/06/26 10:20:49;;;;;;;1.20;1.20;;;;;;;26.55;65.62;96932.78;5008390;28;20938;-66
2022/06/26 10:23:32;;;;;;;1.30;1.30;;;;;;;26.59;61.52;96937.31;5013122;28;20247;-66
2022/06/26 10:26:11;;;;;;;1.30;1.30;;;;;;;26.70;53.57;96934.44;4967673;28;20236;-68
2022/06/26 10:28:58;;;;;;;1.20;1.20;;;;;;;26.98;52.61;96931.84;5009649;28;20611;-67
2022/06/26 10:31:30;;;;;;;1.30;1.30;;;;;;;26.92;61.23;96936.59;4997963;28;20295;-69
2022/06/26 10:34:10;;;;;;;1.27;1.20;;;;;;;26.92;62.58;96930.34;5010498;28;20486;-68
2022/06/26 10:36:38;;;;;;;1.40;1.40;;;;;;;26.82;66.52;96937.53;5009406;28;20305;-68
2022/06/26 10:39:07;;;;;;;2.13;1.17;;;;;;;26.97;52.82;96932.97;5010472;28;20204;-69
2022/06/26 10:44:34;;;;;;;3.53;1.53;;;;;;;27.08;51.71;96937.13;5017191;28;20331;-65
2022/06/26 10:47:13;;;;;;;1.00;1.00;;;;;;;26.93;54.32;96931.94;4997580;28;20307;-68
2022/06/26 10:49:52;;;;;;;1.50;1.40;;;;;;;26.99;56.71;96926.13;5008842;28;20899;-67
2022/06/26 10:52:27;;;;;;;1.20;1.20;;;;;;;27.26;48.77;96924.56;5016356;28;20296;-69
2022/06/26 10:54:57;;;;;;;1.47;1.37;;;;;;;27.24;57.60;96928.72;4967132;28;24636;-67
2022/06/26 10:57:35;;;;;;;1.30;1.30;;;;;;;27.37;55.90;96918.97;5015114;28;20209;-66
2022/06/26 11:00:06;;;;;;;1.10;1.10;;;;;;;27.30;51.81;96922.06;4963826;28;20427;-68
2022/06/26 11:02:39;;;;;;;1.60;1.50;;;;;;;27.37;50.83;96919.75;5009176;28;20359;-68
2022/06/26 11:05:09;;;;;;;2.10;1.40;;;;;;;27.30;55.50;96925.63;4993458;28;20366;-71
2022/06/26 11:07:43;;;;;;;2.20;1.93;;;;;;;27.40;64.46;96921.88;5009798;28;20631;-70
2022/06/26 11:10:13;;;;;;;2.57;1.30;;;;;;;27.38;65.27;96923.31;4993876;28;21246;-69
2022/06/26 11:12:42;;;;;;;1.50;1.50;;;;;;;27.32;56.46;96919.84;5010581;28;20852;-68
2022/06/26 11:15:26;;;;;;;2.73;1.53;;;;;;;27.01;63.48;96906.78;4969129;28;20499;-69
2022/06/26 11:17:59;;;;;;;3.53;1.83;;;;;;;27.01;67.12;96912.22;5008950;28;20490;-67
2022/06/26 11:20:49;;;;;;;2.77;2.63;;;;;;;27.18;55.39;96910.88;5011622;28;20704;-68
2022/06/26 11:23:20;;;;;;;1.40;1.40;;;;;;;27.06;59.46;96903.19;5010147;28;20346;-67
2022/06/26 11:25:51;;;;;;;1.40;1.40;;;;;;;27.03;59.58;96896.44;5011020;28;20225;-68
2022/06/26 11:28:20;;;;;;;1.70;1.60;;;;;;;27.21;63.38;96904.84;5001702;28;20302;-68
2022/06/26 11:30:49;;;;;;;1.50;1.50;;;;;;;27.10;54.91;96896.88;4970067;28;20235;-67
2022/06/26 11:33:32;;;;;;;1.47;1.47;;;;;;;27.40;68.06;96897.41;5010919;28;20369;-68
2022/06/26 11:36:05;;;;;;;3.13;1.70;;;;;;;27.56;58.61;96899.88;5006402;28;20494;-68
2022/06/26 11:38:34;;;;;;;1.50;1.50;;;;;;;27.66;58.36;96902.38;5009391;28;20205;-68
2022/06/26 11:41:04;;;;;;;1.50;1.40;;;;;;;27.78;56.01;96901.06;5008405;28;20727;-68
2022/06/26 11:43:33;;;;;;;1.80;1.50;;;;;;;27.92;59.82;96896.44;4998888;28;20224;-69
2022/06/26 11:46:03;;;;;;;2.23;1.80;;;;;;;28.08;53.77;96888.75;4966483;28;20430;-67
2022/06/26 11:48:33;;;;;;;1.53;1.53;;;;;;;27.99;54.41;96888.66;5011795;28;20287;-71
2022/06/26 11:51:01;;;;;;;1.60;1.50;;;;;;;28.29;57.18;96893.75;5007051;28;20209;-68
2022/06/26 11:53:33;;;;;;;1.60;1.60;;;;;;;28.25;56.67;96898.19;5012632;28;20321;-67
2022/06/26 11:56:03;;;;;;;1.97;1.87;;;;;;;28.10;53.70;96902.03;5007200;28;20229;-67